Seneca, IL (61360)

1:22 AM CDT on March 30, 2015 (GMT -0500)
Verona | | Change Station
CLOSE
Current Station
Personal Weather Station
Location: Verona, IL
Elevation: 604 ft
Nearby Weather Stations

Elev 604 ft 41.26 °N, 88.48 °W | Updated 13 minutes ago

Clear
Clear
40.6 °F
Feels Like 33 °F
N
14.0
Wind Variable Wind from WNW
Gusts 15.0 mph

Today
High -- | Low -- °F
--% Chance of Precip.
Yesterday
High -- | Low -- °F
Precip. -- in
6:41 AM 7:17 PM
Waxing Gibbous, 77% visible
Pressure 29.97 in
Visibility 10.0 miles
Clouds Clear
Windchill 33 °F
Dew Point 34 °F
Humidity 77%
Rainfall 0.00 in
Snow Depth Not available.
UV 0 out of 12
Pollen 3.90 out of 12
Air Quality Not available.
Flu Activity Not available.
METAR KC09 300555Z AUTO 28009KT 10SM CLR 03/M01 A2997 RMK AO2 T00251006 10104 20012 401041037

More Conditions Fewer Conditions

Pressure 29.97 in
Visibility 10.0 miles
Clouds Clear
Windchill 33 °F
Dew Point 34 °F
Humidity 77%
Rainfall 0.00 in
Snow Depth Not available.
UV 0 out of 12
Pollen 3.90 out of 12
Air Quality Not available.
Flu Activity Not available.
METAR KC09 300555Z AUTO 28009KT 10SM CLR 03/M01 A2997 RMK AO2 T00251006 10104 20012 401041037

More Conditions Fewer Conditions

10-Day Weather Forecast

Almanac

Astronomy

Mar. 30, 2015 Rise Set
Actual Time
Civil Twilight
Nautical Twilight
Astronomical Twilight
Moon
Length of Visible Light
Length of Day
Tomorrow will be .
, % of the Moon is Illuminated

Today's Extremes

State Highs State Lows

Community

WunderPhotos

Upload Photos

1,809,439 photos uploaded!

WunderBlogs® & News

Nearby

Air Quality

  Air Quality AQ Index Pollutant
Not available.

Snow Depth

Station Depth Elevation

Earthquake Activity

City Distance Mag. Time & Date
Minimum magnitude displayed is 2.5.

Coastal Water Temperatures

Place Temperature

Stations

Nearby Weather Stations

Station Location Temp. Windchill Dew Point Humidity Wind Precip. Elev Updated Type